Linkoping, Sweden

6:30 AM CEST on July 25, 2014 (GMT +0200)
Malmen Air Base (ESCF) Elev 305 ft | 58.40 °N, 15.53 °E | Change Station

Current weather conditions updated 10 minutes ago

Clear
Clear
59 °F
Feels Like 59 °F
N
1
Wind Variable Wind from SW

Today is forecast to be nearly the same temperature as yesterday.

Today
High -- | Low -- °F
--% Chance of Precip.
Yesterday
High -- | Low -- °F
Precip. -- in
4:33 AM 9:33 PM
Waning Crescent, 3% visible
Pressure 30.18 in
Visibility 6.2 miles
Clouds
Dew Point 55 °F
Humidity 88%
Rainfall 0.00 in
Snow Depth Not available.
UV Not available.
Pollen Not available.
Air Quality Not available.
Flu Activity Not available.
METAR ESCF 250420Z AUTO 22001KT 9999NDV NCD 15/13 Q1022

More Conditions Fewer Conditions

Pressure 30.18 in
Visibility 6.2 miles
Clouds
Dew Point 55 °F
Humidity 88%
Rainfall 0.00 in
Snow Depth Not available.
UV Not available.
Pollen Not available.
Air Quality Not available.
Flu Activity Not available.
METAR ESCF 250420Z AUTO 22001KT 9999NDV NCD 15/13 Q1022

More Conditions Fewer Conditions

10-Day Weather Forecast

Almanac

Astronomy

Jul. 25, 2014 Rise Set
Actual Time 4:33 AM CEST 9:33 PM CEST
Civil Twilight 3:34 AM CEST 10:32 PM CEST
Nautical Twilight 1:36 AM CEST 12:45 AM CEST
Astronomical Twilight Sun does not rise Sun does not rise
Moon 3:27 AM CEST 8:05 PM CEST
Length of Visible Light 18h 58m
Length of Day
16h 59m
Tomorrow will be 4m 2s shorter.
Waning Crescent, 3% of the Moon is Illuminated
Today
Waning Crescent
Jul 26
New
Aug 3
First Quarter
Aug 10
Full
Aug 17
Last Quarter

Yesterday's Extremes

Country Highs Country Lows

Community

WunderPhotos

Upload Photos

1,737,244 photos uploaded!

Nearby

Snow Depth

Not available.

Earthquake Activity

City Distance Mag. Time & Date
No recent earthquake activity has been reported nearby.
Minimum magnitude displayed is 2.5.

Coastal Water Temperatures

Place Temperature
No Stations Reporting

Nearby Weather Stations

Station Location Temp. Dew Point Humidity Wind Precip. Elev Updated Type
Tokarp, Malmslatt, Linkoping 60.3 °F 52 °F 74% SSE  at  0.0 mph 0.00 in / hr 223 ft 6:16 AM CEST Normal
Skeda, Linkoping 61.4 °F 57 °F 84% ESE  at  0.0 mph 0.00 in / hr 344 ft 6:28 AM CEST Normal
Ekangen, Linkoping 61.3 °F 55 °F 80% North  at  0.0 mph 0.00 in / hr 144 ft 6:30 AM CEST Rapid Fire
Herseby, ├»┬┐┬Żsterg├»┬┐┬Żtlands L├»┬┐┬Żn 57.0 °F 56 °F 98% North  at  1.6 mph - / hr 311 ft 6:07 AM CEST Rapid Fire
Hov, Vadstena, Vadstena 59.6 °F 57 °F 91% East  at  0.0 mph 0.00 in / hr 351 ft 6:25 AM CEST Normal
Atvidaberg 63.6 °F 57 °F 80% SSW  at  0.0 mph 0.00 in / hr 305 ft 6:25 AM CEST Normal
Vadstena, Vadstena 62.8 °F 50 °F 64% South  at  0.0 mph 0.00 in / hr 300 ft 6:30 AM CEST Rapid Fire
Finsp├â┬ąng, Finsp├â┬ąng 67.3 °F 60 °F 77% NNE  at  0.0 mph 0.00 in / hr 157 ft 6:30 AM CEST Rapid Fire

Show More Stations Show Fewer Stations